Time;durP1;ratioP1;P1;durP2;ratioP2;P2;SDS_P1;SDS_P2;PMS_P1;PMS_P2;Temp;Humidity;BMP_temperature;BMP_pressure;BME280_temperature;BME280_humidity;BME280_pressure;Samples;Min_cycle;Max_cycle;Signal;HPM_P1;HPM_P2
2022/09/09 00:02:20;;;;;;;13.63;11.23;;;14.80;99.90;;;;;;7391862;19;20492;-78
2022/09/09 00:05:01;;;;;;;19.67;12.45;;;14.80;99.90;;;;;;7395922;19;20358;-78
2022/09/09 00:07:48;;;;;;;14.93;13.07;;;14.80;99.90;;;;;;7392905;19;20018;-79
2022/09/09 00:10:18;;;;;;;15.90;12.27;;;14.70;99.90;;;;;;7394250;19;20081;-79
2022/09/09 00:13:15;;;;;;;18.70;13.25;;;14.80;99.90;;;;;;7393129;19;20026;-79
2022/09/09 00:16:02;;;;;;;15.95;12.30;;;14.70;99.90;;;;;;7394594;19;20431;-79
2022/09/09 00:18:47;;;;;;;15.85;11.82;;;14.60;99.90;;;;;;7392755;19;20014;-78
2022/09/09 00:21:17;;;;;;;19.70;13.18;;;14.60;99.90;;;;;;7391941;19;20028;-79
2022/09/09 00:24:29;;;;;;;13.35;11.98;;;14.60;99.90;;;;;;7392053;19;20010;-79
2022/09/09 00:27:41;;;;;;;16.83;12.48;;;14.50;99.90;;;;;;7399226;19;20021;-79
2022/09/09 00:30:33;;;;;;;15.05;12.52;;;14.50;99.90;;;;;;7399498;19;20022;-79
2022/09/09 00:33:24;;;;;;;18.88;13.55;;;14.40;99.90;;;;;;7400477;19;20014;-79
2022/09/09 00:36:18;;;;;;;17.25;14.23;;;14.40;99.90;;;;;;7398791;19;20472;-78
2022/09/09 00:39:04;;;;;;;19.55;14.25;;;14.50;99.90;;;;;;7399958;19;20392;-79
2022/09/09 00:42:02;;;;;;;14.90;13.23;;;14.40;99.90;;;;;;7398982;19;20043;-79
2022/09/09 00:44:50;;;;;;;23.33;14.23;;;14.50;99.90;;;;;;7398373;19;20021;-79
2022/09/09 00:47:45;;;;;;;15.45;12.38;;;14.50;99.90;;;;;;7399434;19;20018;-79
2022/09/09 00:50:32;;;;;;;18.33;12.57;;;14.50;99.90;;;;;;7400105;19;20010;-79
2022/09/09 00:53:24;;;;;;;16.63;14.25;;;14.40;99.90;;;;;;7398396;19;20014;-79
2022/09/09 00:56:19;;;;;;;20.58;14.48;;;14.40;99.90;;;;;;7396763;19;20015;-79
2022/09/09 00:59:07;;;;;;;21.83;14.40;;;14.40;99.90;;;;;;7397837;19;20021;-79
2022/09/09 01:01:55;;;;;;;20.60;14.65;;;14.40;99.90;;;;;;7395375;19;20463;-79
2022/09/09 01:04:42;;;;;;;16.25;12.73;;;14.40;99.90;;;;;;7399654;19;20022;-79
2022/09/09 01:07:27;;;;;;;19.15;14.18;;;14.30;99.90;;;;;;7398969;19;20015;-79
2022/09/09 01:10:46;;;;;;;18.05;14.85;;;14.30;99.90;;;;;;7399260;19;20018;-79
2022/09/09 01:13:35;;;;;;;18.25;14.02;;;14.30;99.90;;;;;;7398346;19;20424;-79
2022/09/09 01:16:20;;;;;;;19.77;15.10;;;14.30;99.90;;;;;;7398306;19;20031;-79
2022/09/09 01:19:15;;;;;;;18.77;15.05;;;14.20;99.90;;;;;;7397965;19;20086;-79
2022/09/09 01:22:08;;;;;;;16.73;14.32;;;14.20;99.90;;;;;;7397854;19;20015;-79
2022/09/09 01:25:02;;;;;;;17.25;14.15;;;14.20;99.90;;;;;;7396426;19;20029;-79
2022/09/09 01:27:51;;;;;;;22.70;15.95;;;14.20;99.90;;;;;;7397677;19;20010;-79
2022/09/09 01:30:40;;;;;;;21.58;15.25;;;14.20;99.90;;;;;;7396991;19;20042;-78
2022/09/09 01:33:26;;;;;;;20.65;15.75;;;14.20;99.90;;;;;;7397160;19;20044;-79
2022/09/09 01:36:38;;;;;;;22.23;16.45;;;14.20;99.90;;;;;;7393264;19;20021;-79
2022/09/09 01:39:25;;;;;;;21.23;15.80;;;14.10;99.90;;;;;;7397947;19;20022;-79
2022/09/09 01:42:14;;;;;;;20.45;16.35;;;14.10;99.90;;;;;;7396013;19;20021;-79
2022/09/09 01:45:00;;;;;;;17.08;12.10;;;14.10;99.90;;;;;;7398255;19;20018;-79
2022/09/09 01:47:46;;;;;;;19.92;14.80;;;14.10;99.90;;;;;;7396660;19;20045;-78
2022/09/09 01:50:33;;;;;;;17.00;14.35;;;14.00;99.90;;;;;;7398067;19;20014;-79
2022/09/09 01:53:20;;;;;;;20.42;14.98;;;14.00;99.90;;;;;;7395239;19;20042;-79
2022/09/09 01:56:29;;;;;;;11.43;10.00;;;14.00;99.90;;;;;;7398545;19;20019;-78
2022/09/09 01:59:46;;;;;;;19.42;13.73;;;14.00;99.90;;;;;;7395586;19;20021;-79
2022/09/09 02:03:11;;;;;;;18.88;14.68;;;14.00;99.90;;;;;;7395831;19;20015;-80
2022/09/09 02:06:21;;;;;;;19.70;14.73;;;14.00;99.90;;;;;;7397436;19;20360;-79
2022/09/09 02:09:10;;;;;;;19.15;14.38;;;14.00;99.90;;;;;;7394009;19;20440;-80
2022/09/09 02:12:07;;;;;;;19.73;14.93;;;14.00;99.90;;;;;;7395742;19;20028;-79
2022/09/09 02:14:59;;;;;;;16.08;11.85;;;14.00;99.90;;;;;;7393473;19;20482;-79
2022/09/09 02:17:46;;;;;;;19.38;13.82;;;14.00;99.90;;;;;;7393184;19;20014;-79
2022/09/09 02:20:33;;;;;;;18.75;13.70;;;14.10;99.90;;;;;;7397175;19;20040;-78
2022/09/09 02:23:20;;;;;;;16.48;11.40;;;14.10;99.90;;;;;;7393207;19;20014;-78
2022/09/09 02:26:10;;;;;;;17.20;11.68;;;14.10;99.90;;;;;;7393046;19;20035;-79
2022/09/09 02:28:58;;;;;;;21.08;13.18;;;14.10;99.90;;;;;;7395318;19;20015;-79
2022/09/09 02:31:47;;;;;;;22.67;14.20;;;14.20;99.90;;;;;;7393104;19;20022;-79
2022/09/09 02:34:39;;;;;;;15.30;12.55;;;14.20;99.90;;;;;;7394915;19;20051;-79
2022/09/09 02:37:31;;;;;;;16.88;10.80;;;14.20;99.90;;;;;;7392694;19;20018;-79
2022/09/09 02:40:17;;;;;;;16.73;12.07;;;14.10;99.90;;;;;;7392361;19;20031;-79
2022/09/09 02:43:03;;;;;;;17.40;10.65;;;14.10;99.90;;;;;;7390576;19;20338;-79
2022/09/09 02:46:10;;;;;;;15.38;9.80;;;14.20;99.90;;;;;;7394779;19;20412;-78
2022/09/09 02:49:33;;;;;;;18.23;12.95;;;14.20;99.90;;;;;;7389901;19;20038;-79
2022/09/09 02:52:24;;;;;;;;;;;14.20;99.90;;;;;;7393502;19;20010;-80
2022/09/09 02:55:37;;;;;;;18.50;12.30;;;14.30;99.90;;;;;;7395476;19;20263;-78
2022/09/09 02:58:24;;;;;;;19.33;11.68;;;14.30;99.90;;;;;;7394411;19;20021;-78
2022/09/09 03:01:10;;;;;;;17.45;11.25;;;14.30;99.90;;;;;;7391620;19;20010;-78
2022/09/09 03:03:55;;;;;;;14.70;8.75;;;14.40;99.90;;;;;;7396105;19;20078;-79
2022/09/09 03:06:41;;;;;;;14.50;9.32;;;14.40;99.90;;;;;;7391448;19;20094;-79
2022/09/09 03:09:27;;;;;;;14.95;11.60;;;14.40;99.90;;;;;;7394530;19;20014;-79
2022/09/09 03:12:13;;;;;;;13.32;11.18;;;14.40;99.90;;;;;;7394845;19;20027;-80
2022/09/09 03:14:59;;;;;;;16.45;11.68;;;14.40;99.90;;;;;;7391457;19;20014;-79
2022/09/09 03:17:44;;;;;;;15.25;10.73;;;14.40;99.90;;;;;;7394058;19;20043;-79
2022/09/09 03:20:30;;;;;;;18.00;10.98;;;14.50;99.90;;;;;;7395136;19;20015;-79
2022/09/09 03:23:17;;;;;;;14.75;9.27;;;14.40;99.90;;;;;;7391274;19;20476;-79
2022/09/09 03:26:03;;;;;;;16.17;11.35;;;14.50;99.90;;;;;;7391497;19;20324;-79
2022/09/09 03:28:49;;;;;;;10.55;7.85;;;14.50;99.90;;;;;;7395113;19;20010;-80
2022/09/09 03:31:36;;;;;;;14.02;10.70;;;14.50;99.90;;;;;;7391091;19;20109;-79
2022/09/09 03:34:21;;;;;;;14.63;11.00;;;14.60;99.90;;;;;;7392946;19;20138;-79
2022/09/09 03:37:07;;;;;;;16.42;11.27;;;14.50;99.90;;;;;;7391591;19;20074;-79
2022/09/09 03:39:54;;;;;;;18.08;10.65;;;14.60;99.90;;;;;;7390784;19;20011;-79
2022/09/09 03:42:42;;;;;;;15.35;11.13;;;14.50;99.90;;;;;;7389678;19;20051;-79
2022/09/09 03:45:28;;;;;;;18.75;11.40;;;14.60;99.90;;;;;;7390430;19;20002;-79
2022/09/09 03:48:16;;;;;;;16.40;10.13;;;14.50;99.90;;;;;;7390241;19;20026;-79
2022/09/09 03:51:02;;;;;;;14.43;10.45;;;14.60;99.90;;;;;;7392823;19;20074;-79
2022/09/09 03:53:49;;;;;;;18.48;11.10;;;14.60;99.90;;;;;;7392460;19;20022;-79
2022/09/09 03:56:35;;;;;;;15.52;10.57;;;14.60;99.90;;;;;;7394490;19;20048;-79
2022/09/09 03:59:21;;;;;;;12.50;8.77;;;14.60;99.90;;;;;;7396680;19;20024;-79
2022/09/09 04:02:07;;;;;;;14.73;10.07;;;14.70;99.90;;;;;;7397694;19;20018;-79
2022/09/09 04:04:52;;;;;;;14.85;9.80;;;14.70;99.90;;;;;;7399712;19;20019;-79
2022/09/09 04:07:38;;;;;;;10.85;7.20;;;14.80;99.90;;;;;;7397867;19;20021;-79
2022/09/09 04:10:24;;;;;;;12.25;7.07;;;14.80;99.90;;;;;;7400726;19;20026;-79
2022/09/09 04:13:11;;;;;;;14.48;9.65;;;14.90;99.90;;;;;;7400048;19;20022;-79
2022/09/09 04:15:59;;;;;;;13.02;9.15;;;14.90;99.90;;;;;;7401078;19;20022;-79
2022/09/09 04:18:44;;;;;;;12.43;8.18;;;14.90;99.90;;;;;;7399564;19;20155;-79
2022/09/09 04:21:31;;;;;;;14.98;9.82;;;15.00;99.90;;;;;;7397454;19;20416;-79
2022/09/09 04:24:16;;;;;;;15.60;9.65;;;14.90;99.90;;;;;;7397179;19;20487;-79
2022/09/09 04:27:02;;;;;;;11.82;8.02;;;15.00;99.90;;;;;;7398026;19;20028;-79
2022/09/09 04:29:48;;;;;;;9.18;5.78;;;15.00;99.90;;;;;;7399917;19;20022;-78
2022/09/09 04:32:35;;;;;;;13.80;10.60;;;15.00;99.90;;;;;;7400299;19;20049;-79
2022/09/09 04:35:21;;;;;;;10.73;8.23;;;15.10;99.90;;;;;;7400540;19;20427;-79
2022/09/09 04:38:09;;;;;;;15.40;9.00;;;15.10;99.90;;;;;;7399931;19;20047;-79
2022/09/09 04:40:55;;;;;;;13.38;9.40;;;15.00;99.90;;;;;;7396376;19;20010;-79
2022/09/09 04:43:41;;;;;;;15.27;9.93;;;15.00;99.90;;;;;;7398924;19;20010;-79
2022/09/09 04:46:27;;;;;;;11.50;9.35;;;15.10;99.90;;;;;;7399665;19;20018;-79
2022/09/09 04:49:13;;;;;;;11.30;8.38;;;15.10;99.90;;;;;;7394979;19;20015;-79
2022/09/09 04:51:58;;;;;;;10.88;8.30;;;15.20;99.90;;;;;;7397422;19;20089;-79
2022/09/09 04:54:45;;;;;;;11.77;8.85;;;15.10;99.90;;;;;;7398575;19;20691;-79
2022/09/09 04:57:31;;;;;;;10.63;7.40;;;15.10;99.90;;;;;;7399640;19;20014;-79
2022/09/09 05:00:18;;;;;;;14.10;9.82;;;15.10;99.90;;;;;;7397521;19;20404;-79
2022/09/09 05:03:06;;;;;;;12.68;9.63;;;15.10;99.90;;;;;;7397216;19;20074;-79
2022/09/09 05:05:53;;;;;;;11.45;9.07;;;15.00;99.90;;;;;;7398726;19;20014;-79
2022/09/09 05:08:39;;;;;;;9.68;8.65;;;15.00;99.90;;;;;;7396686;19;20024;-79
2022/09/09 05:11:28;;;;;;;10.60;8.13;;;15.00;99.90;;;;;;7394979;19;20471;-79
2022/09/09 05:14:14;;;;;;;11.10;7.18;;;15.00;99.90;;;;;;7398603;19;20014;-79
2022/09/09 05:17:00;;;;;;;9.35;5.95;;;15.00;99.90;;;;;;7395807;19;20022;-79
2022/09/09 05:19:46;;;;;;;8.95;6.53;;;15.00;99.90;;;;;;7398719;19;20100;-79
2022/09/09 05:22:31;;;;;;;8.57;6.55;;;15.00;99.90;;;;;;7398210;19;20121;-79
2022/09/09 05:25:17;;;;;;;9.85;7.03;;;15.00;99.90;;;;;;7399097;19;20019;-78
2022/09/09 05:28:03;;;;;;;7.70;5.38;;;14.90;99.90;;;;;;7396535;19;20022;-79
2022/09/09 05:31:00;;;;;;;9.32;6.80;;;14.90;99.90;;;;;;7394800;19;20006;-79
2022/09/09 05:33:49;;;;;;;8.75;6.03;;;14.90;99.90;;;;;;7395213;19;20010;-79
2022/09/09 05:36:34;;;;;;;10.43;6.78;;;14.90;99.90;;;;;;7396518;19;20346;-79
2022/09/09 05:39:21;;;;;;;9.63;6.32;;;15.00;99.90;;;;;;7394914;19;20040;-82
2022/09/09 05:42:06;;;;;;;12.88;7.43;;;14.90;99.90;;;;;;7393830;19;20035;-80
2022/09/09 05:44:54;;;;;;;8.63;6.50;;;15.00;99.90;;;;;;7406929;19;20014;-89
2022/09/09 05:47:40;;;;;;;10.48;7.10;;;15.00;99.90;;;;;;7393872;19;20479;-80
2022/09/09 05:50:25;;;;;;;1999.90;323.75;;;15.00;99.90;;;;;;7395764;19;20014;-80
2022/09/09 05:53:11;;;;;;;13.32;7.47;;;15.00;99.90;;;;;;7397089;19;20014;-83
2022/09/09 05:56:15;;;;;;;10.48;7.93;;;14.90;99.90;;;;;;7398141;19;20475;-82
2022/09/09 05:59:01;;;;;;;9.50;7.10;;;14.90;99.90;;;;;;7390640;19;20038;-82
2022/09/09 06:01:47;;;;;;;9.30;6.60;;;15.00;99.90;;;;;;7395125;19;20015;-82
2022/09/09 06:04:33;;;;;;;11.35;7.60;;;15.00;99.90;;;;;;7395706;19;20014;-81
2022/09/09 06:07:19;;;;;;;8.60;5.20;;;14.90;99.90;;;;;;7392625;19;20021;-82
2022/09/09 06:10:06;;;;;;;9.25;7.63;;;14.90;99.90;;;;;;7396095;19;20022;-80
2022/09/09 06:12:52;;;;;;;10.00;6.05;;;15.00;99.90;;;;;;7395417;19;20077;-82
2022/09/09 06:15:38;;;;;;;10.20;6.45;;;15.10;99.90;;;;;;7394825;19;20019;-82
2022/09/09 06:18:25;;;;;;;7.75;5.97;;;15.20;99.90;;;;;;7392893;19;20035;-81
2022/09/09 06:21:25;;;;;;;9.25;6.97;;;15.20;99.90;;;;;;7393205;19;20014;-81
2022/09/09 06:24:13;;;;;;;9.40;5.40;;;15.30;99.90;;;;;;7396566;19;20022;-81
2022/09/09 06:26:59;;;;;;;8.75;7.13;;;15.40;99.90;;;;;;7394223;19;20472;-81
2022/09/09 06:29:45;;;;;;;11.95;7.82;;;15.50;99.90;;;;;;7396559;19;20010;-82
2022/09/09 06:32:32;;;;;;;11.40;8.02;;;15.40;99.90;;;;;;7394596;19;20018;-81
2022/09/09 06:35:18;;;;;;;9.48;6.22;;;15.40;99.90;;;;;;7392792;19;20039;-82
2022/09/09 06:38:05;;;;;;;7.93;6.53;;;15.30;99.90;;;;;;7394652;19;20077;-82
2022/09/09 06:40:55;;;;;;;10.68;6.57;;;15.50;99.90;;;;;;7393567;19;20014;-82
2022/09/09 06:43:42;;;;;;;12.25;8.18;;;15.50;99.90;;;;;;7396044;19;20081;-82
2022/09/09 06:46:30;;;;;;;6.05;3.58;;;15.60;99.90;;;;;;7392383;19;20011;-82
2022/09/09 06:49:16;;;;;;;9.32;6.22;;;15.40;99.90;;;;;;7394743;19;20048;-82
2022/09/09 06:52:02;;;;;;;10.10;6.93;;;15.50;99.90;;;;;;7393112;19;20013;-82
2022/09/09 06:54:48;;;;;;;2.80;2.25;;;15.60;99.90;;;;;;7395114;19;20507;-81
2022/09/09 06:57:34;;;;;;;11.43;7.50;;;15.70;99.90;;;;;;7396261;19;20010;-81
2022/09/09 07:00:20;;;;;;;8.93;7.20;;;15.80;99.90;;;;;;7393176;19;20053;-81
2022/09/09 07:03:06;;;;;;;12.18;7.97;;;15.90;99.90;;;;;;7392156;19;20025;-82
2022/09/09 07:05:59;;;;;;;10.50;7.43;;;16.00;99.90;;;;;;7392357;19;20018;-82
2022/09/09 07:08:51;;;;;;;10.20;7.90;;;15.90;99.90;;;;;;7394780;19;20369;-82
2022/09/09 07:11:42;;;;;;;5.03;3.40;;;15.90;99.90;;;;;;7391862;19;20018;-82
2022/09/09 07:14:28;;;;;;;9.55;6.50;;;16.10;99.90;;;;;;7391512;19;20031;-82
2022/09/09 07:17:14;;;;;;;6.38;3.17;;;16.40;99.90;;;;;;7395814;19;20031;-82
2022/09/09 07:20:00;;;;;;;4.30;3.15;;;16.70;99.90;;;;;;7392627;19;20011;-82
2022/09/09 07:22:46;;;;;;;6.72;5.07;;;17.10;99.90;;;;;;7392911;19;20011;-82
2022/09/09 07:25:31;;;;;;;7.13;6.18;;;17.20;99.90;;;;;;7392222;19;20011;-82
2022/09/09 07:28:17;;;;;;;10.43;6.38;;;17.40;99.90;;;;;;7392193;19;20124;-82
2022/09/09 07:31:04;;;;;;;5.57;4.35;;;17.60;99.90;;;;;;7390455;19;20014;-82
2022/09/09 07:33:49;;;;;;;7.93;5.68;;;18.10;99.90;;;;;;7394658;19;20090;-82
2022/09/09 07:36:38;;;;;;;6.40;3.92;;;18.30;99.90;;;;;;7402234;19;20014;-83
2022/09/09 07:39:24;;;;;;;7.15;5.43;;;18.50;99.90;;;;;;7398528;19;20014;-82
2022/09/09 07:42:13;;;;;;;6.15;4.50;;;18.60;99.90;;;;;;7399896;19;20010;-82
2022/09/09 07:44:59;;;;;;;9.98;5.90;;;18.80;99.90;;;;;;7398545;19;20018;-83
2022/09/09 07:47:45;;;;;;;4.63;2.97;;;19.00;99.90;;;;;;7399557;19;20010;-83
2022/09/09 07:50:30;;;;;;;5.82;2.55;;;20.00;99.90;;;;;;7398541;19;20499;-83
2022/09/09 07:53:16;;;;;;;5.75;3.47;;;19.90;99.90;;;;;;7397800;19;20014;-83
2022/09/09 07:56:09;;;;;;;7.45;3.80;;;20.30;99.90;;;;;;7400784;19;20011;-82
2022/09/09 07:58:56;;;;;;;;;;;20.30;99.90;;;;;;7397266;19;20018;-84
2022/09/09 08:01:55;;;;;;;2.88;2.13;;;20.00;99.90;;;;;;7398843;19;19926;-82
2022/09/09 08:04:40;;;;;;;7.68;4.30;;;20.30;99.90;;;;;;7401484;19;20025;-83
2022/09/09 08:07:26;;;;;;;3.97;1.75;;;21.20;99.90;;;;;;7401074;19;20014;-83
2022/09/09 08:10:14;;;;;;;8.85;4.50;;;21.90;99.90;;;;;;7397351;19;20010;-83
2022/09/09 08:13:00;;;;;;;5.05;2.83;;;21.80;99.90;;;;;;7397603;19;20058;-83
2022/09/09 08:15:45;;;;;;;4.82;3.45;;;21.20;99.90;;;;;;7397511;19;20078;-83
2022/09/09 08:18:32;;;;;;;4.90;2.55;;;20.50;99.90;;;;;;7400186;19;20019;-83
2022/09/09 08:21:23;;;;;;;3.80;2.28;;;20.20;99.90;;;;;;7396836;19;20048;-83
2022/09/09 08:24:10;;;;;;;6.45;2.75;;;19.80;99.90;;;;;;7400904;19;20030;-83
2022/09/09 08:26:56;;;;;;;7.10;3.45;;;19.50;99.90;;;;;;7399936;19;20027;-83
2022/09/09 08:29:42;;;;;;;6.13;4.03;;;19.40;99.90;;;;;;7400701;19;20527;-83
2022/09/09 08:32:29;;;;;;;6.68;2.53;;;19.40;99.90;;;;;;7397021;19;20357;-84
2022/09/09 08:35:15;;;;;;;5.20;1.80;;;19.30;99.90;;;;;;7396923;19;20014;-83
2022/09/09 08:38:02;;;;;;;5.78;4.05;;;19.50;99.90;;;;;;7398077;19;20027;-83
2022/09/09 08:40:53;;;;;;;4.03;2.10;;;19.70;99.90;;;;;;7398437;19;20145;-83
2022/09/09 08:43:41;;;;;;;3.67;1.60;;;19.80;99.90;;;;;;7399809;19;20480;-83
2022/09/09 08:46:42;;;;;;;5.32;2.33;;;19.80;99.90;;;;;;7394545;19;20010;-82
2022/09/09 08:49:49;;;;;;;5.32;2.85;;;19.70;99.90;;;;;;7396612;19;20015;-83
2022/09/09 08:52:51;;;;;;;3.42;1.23;;;19.70;99.90;;;;;;7396015;19;20022;-83
2022/09/09 08:55:46;;;;;;;4.20;1.80;;;20.00;99.90;;;;;;7396376;19;20070;-84
2022/09/09 08:58:34;;;;;;;4.72;2.40;;;20.00;99.90;;;;;;7398553;19;20486;-83
2022/09/09 09:01:31;;;;;;;5.28;1.80;;;19.90;99.90;;;;;;7395689;19;20018;-83
2022/09/09 09:04:51;;;;;;;6.53;2.92;;;20.10;99.90;;;;;;7398285;19;20030;-83
2022/09/09 09:08:10;;;;;;;6.60;2.97;;;20.00;99.90;;;;;;7396871;19;20011;-82
2022/09/09 09:11:00;;;;;;;4.43;1.88;;;19.70;99.90;;;;;;7396781;19;20807;-83
2022/09/09 09:13:55;;;;;;;5.18;1.80;;;19.40;99.90;;;;;;7400290;19;20019;-83
2022/09/09 09:16:52;;;;;;;5.63;2.83;;;19.50;99.90;;;;;;7394585;19;20352;-82
2022/09/09 09:19:40;;;;;;;6.63;3.80;;;19.50;99.90;;;;;;7397983;19;20018;-83
2022/09/09 09:22:42;;;;;;;6.03;2.40;;;19.60;99.90;;;;;;7396057;19;20070;-83
2022/09/09 09:25:34;;;;;;;6.82;3.42;;;19.70;99.90;;;;;;7396165;19;20014;-83
2022/09/09 09:28:24;;;;;;;4.90;1.70;;;19.80;99.90;;;;;;7398619;19;20019;-83
2022/09/09 09:31:13;;;;;;;4.53;2.53;;;19.90;99.90;;;;;;7395125;19;20123;-82
2022/09/09 09:34:00;;;;;;;2.80;1.45;;;20.00;99.90;;;;;;7396723;19;20348;-83
2022/09/09 09:37:04;;;;;;;5.88;1.67;;;19.90;99.90;;;;;;7394734;19;20031;-83
2022/09/09 09:39:50;;;;;;;7.75;3.33;;;20.00;99.90;;;;;;7394901;19;20356;-83
2022/09/09 09:42:37;;;;;;;7.18;3.08;;;20.10;99.90;;;;;;7396630;19;20047;-82
2022/09/09 09:45:31;;;;;;;8.70;2.08;;;20.20;99.90;;;;;;7397469;19;20014;-83
2022/09/09 09:48:17;;;;;;;6.40;2.35;;;20.10;99.90;;;;;;7394306;19;20011;-82
2022/09/09 09:51:13;;;;;;;7.30;3.00;;;19.90;99.90;;;;;;7396060;19;20014;-83
2022/09/09 09:54:13;;;;;;;8.57;2.80;;;20.10;99.90;;;;;;7395075;19;20022;-82
2022/09/09 09:57:10;;;;;;;6.90;3.08;;;20.10;99.90;;;;;;7396877;19;20014;-82
2022/09/09 10:00:21;;;;;;;4.65;1.80;;;19.90;99.90;;;;;;7394769;19;20017;-83
2022/09/09 10:03:23;;;;;;;8.02;3.45;;;20.20;99.90;;;;;;7395900;19;20010;-82
2022/09/09 10:06:09;;;;;;;10.93;2.95;;;20.40;99.90;;;;;;7393992;19;20014;-82
2022/09/09 10:08:55;;;;;;;6.25;1.95;;;20.40;99.90;;;;;;7397177;19;20021;-82
2022/09/09 10:11:55;;;;;;;7.10;2.92;;;20.60;99.90;;;;;;7393624;19;20507;-82
2022/09/09 10:15:13;;;;;;;8.13;3.05;;;20.60;99.90;;;;;;7396366;19;20023;-82
2022/09/09 10:18:22;;;;;;;4.07;1.70;;;20.60;99.90;;;;;;7395432;19;20048;-83
2022/09/09 10:21:29;;;;;;;6.97;3.17;;;20.30;99.90;;;;;;7393040;19;20018;-82
2022/09/09 10:24:49;;;;;;;13.40;3.60;;;20.50;99.90;;;;;;7395918;19;20472;-82
2022/09/09 10:27:45;;;;;;;10.30;2.95;;;20.70;99.90;;;;;;7393075;19;20017;-82
2022/09/09 10:30:48;;;;;;;10.82;3.45;;;20.70;99.90;;;;;;7392492;19;20014;-83
2022/09/09 10:33:51;;;;;;;6.57;2.67;;;20.80;99.90;;;;;;7391763;19;20022;-81
2022/09/09 10:36:48;;;;;;;7.43;2.33;;;21.00;99.90;;;;;;7391879;19;20378;-82
2022/09/09 10:39:42;;;;;;;7.43;2.47;;;21.00;99.90;;;;;;7392356;19;20605;-82
2022/09/09 10:42:31;;;;;;;9.27;2.80;;;21.10;99.90;;;;;;7394520;19;20014;-82
2022/09/09 10:45:36;;;;;;;12.73;6.20;;;21.00;99.90;;;;;;7392532;19;20035;-82
2022/09/09 10:48:42;;;;;;;8.35;2.42;;;20.90;99.90;;;;;;7392166;19;20073;-83
2022/09/09 10:51:55;;;;;;;14.18;5.32;;;20.90;99.90;;;;;;7392010;19;20007;-82
2022/09/09 10:55:18;;;;;;;6.60;2.78;;;21.00;99.90;;;;;;7395955;19;20022;-82
2022/09/09 10:58:08;;;;;;;10.70;3.60;;;21.10;99.90;;;;;;7390885;19;20046;-82
2022/09/09 11:01:02;;;;;;;10.63;4.32;;;21.40;99.90;;;;;;7391992;19;20482;-82
2022/09/09 11:03:56;;;;;;;11.35;3.55;;;21.50;99.90;;;;;;7394655;19;20483;-81
2022/09/09 11:06:44;;;;;;;;;;;21.70;99.90;;;;;;7392629;19;20015;-82
2022/09/09 11:09:37;;;;;;;9.00;2.60;;;21.70;99.90;;;;;;7390291;19;19915;-81
2022/09/09 11:12:24;;;;;;;7.05;2.10;;;21.80;99.90;;;;;;7391664;19;20347;-82
2022/09/09 11:15:46;;;;;;;8.73;2.20;;;21.80;99.90;;;;;;7393001;19;20035;-81
2022/09/09 11:18:39;;;;;;;6.47;2.30;;;21.40;99.90;;;;;;7391608;19;20017;-81
2022/09/09 11:21:34;;;;;;;9.43;2.30;;;21.20;99.90;;;;;;7391732;19;20014;-81
2022/09/09 11:24:43;;;;;;;13.75;2.25;;;21.00;99.90;;;;;;7393145;19;20044;-82
2022/09/09 11:27:57;;;;;;;8.35;1.90;;;20.90;99.90;;;;;;7393463;19;20026;-82
2022/09/09 11:30:52;;;;;;;12.10;2.30;;;21.20;99.90;;;;;;7395005;19;20023;-84
2022/09/09 11:33:59;;;;;;;10.43;2.17;;;21.40;99.90;;;;;;7393694;19;20015;-83
2022/09/09 11:37:06;;;;;;;8.20;2.15;;;21.70;99.90;;;;;;7390609;19;20030;-83
2022/09/09 11:40:20;;;;;;;7.38;1.95;;;22.00;99.90;;;;;;7384442;19;20014;-82
2022/09/09 11:43:12;;;;;;;;;;;22.10;99.90;;;;;;7392030;19;20022;-81
2022/09/09 11:46:02;;;;;;;6.45;1.90;;;22.30;99.90;;;;;;7390648;19;19927;-83
2022/09/09 11:49:43;;;;;;;5.57;1.73;;;22.40;99.90;;;;;;7393834;19;20015;-83
2022/09/09 11:52:42;;;;;;;8.95;1.83;;;22.50;99.90;;;;;;7391162;19;20540;-83
2022/09/09 11:55:30;;;;;;;5.32;1.77;;;22.60;99.90;;;;;;7393396;19;20044;-83
2022/09/09 11:58:19;;;;;;;7.28;1.80;;;22.70;99.90;;;;;;7393463;19;20014;-84
2022/09/09 12:01:29;;;;;;;6.95;1.80;;;22.90;99.90;;;;;;7389732;19;20022;-84
2022/09/09 12:04:22;;;;;;;3.97;1.30;;;22.80;99.90;;;;;;7390114;19;20023;-84
2022/09/09 12:07:13;;;;;;;7.18;2.05;;;22.50;99.90;;;;;;7391245;19;20014;-84
2022/09/09 12:09:59;;;;;;;5.82;1.83;;;22.20;99.90;;;;;;7390237;19;20482;-84
2022/09/09 12:12:45;;;;;;;9.05;1.40;;;22.00;99.90;;;;;;7389858;19;20038;-83
2022/09/09 12:15:31;;;;;;;4.60;1.63;;;21.70;99.90;;;;;;7390032;19;20014;-83
2022/09/09 12:18:36;;;;;;;8.13;2.83;;;21.80;99.90;;;;;;7389407;19;20018;-84
2022/09/09 12:21:33;;;;;;;7.05;1.77;;;22.10;99.90;;;;;;7396334;19;20035;-83
2022/09/09 12:25:18;;;;;;;5.78;1.70;;;22.60;99.90;;;;;;7399719;19;20014;-84
2022/09/09 12:28:25;;;;;;;;;;;22.90;99.90;;;;;;7396799;19;20468;-84
2022/09/09 12:31:43;;;;;;;5.47;1.63;;;22.80;99.90;;;;;;7397100;19;19923;-84
2022/09/09 12:34:41;;;;;;;6.20;2.50;;;22.40;99.90;;;;;;7396954;19;20011;-83
2022/09/09 12:37:40;;;;;;;8.77;1.60;;;22.60;99.90;;;;;;7397351;19;20025;-83
2022/09/09 12:40:32;;;;;;;5.72;1.13;;;22.80;99.90;;;;;;7397756;19;20120;-83
2022/09/09 12:43:21;;;;;;;4.40;1.58;;;22.80;99.90;;;;;;7393970;19;20022;-84
2022/09/09 12:46:21;;;;;;;4.00;1.40;;;22.80;99.90;;;;;;7394306;19;20512;-83
2022/09/09 12:49:38;;;;;;;5.07;1.58;;;22.50;99.90;;;;;;7396337;19;20027;-83
2022/09/09 12:52:32;;;;;;;5.15;1.48;;;22.20;99.90;;;;;;7396685;19;20476;-83
2022/09/09 12:55:24;;;;;;;5.07;1.38;;;22.10;99.90;;;;;;7396421;19;20011;-82
2022/09/09 12:58:16;;;;;;;3.83;1.50;;;22.10;99.90;;;;;;7399114;19;20015;-83
2022/09/09 13:01:04;;;;;;;7.60;1.40;;;22.00;99.90;;;;;;7395996;19;20014;-83
2022/09/09 13:03:50;;;;;;;5.78;1.40;;;22.00;99.90;;;;;;7396096;19;20022;-83
2022/09/09 13:06:37;;;;;;;5.55;1.48;;;21.90;99.90;;;;;;7396230;19;20019;-83
2022/09/09 13:09:23;;;;;;;4.93;1.65;;;21.80;99.90;;;;;;7396441;19;20543;-83
2022/09/09 13:12:15;;;;;;;5.28;1.30;;;21.80;99.90;;;;;;7396613;19;20109;-83
2022/09/09 13:15:02;;;;;;;6.28;1.73;;;21.90;99.90;;;;;;7398418;19;20695;-84
2022/09/09 13:17:54;;;;;;;5.43;1.27;;;22.00;99.90;;;;;;7395227;19;20082;-84
2022/09/09 13:20:46;;;;;;;3.67;1.10;;;22.10;99.90;;;;;;7395564;19;20014;-84
2022/09/09 13:23:35;;;;;;;4.95;1.30;;;22.10;99.90;;;;;;7393395;19;20019;-83
2022/09/09 13:26:26;;;;;;;5.45;1.13;;;22.40;99.90;;;;;;7395535;19;20406;-83
2022/09/09 13:29:19;;;;;;;4.38;1.20;;;22.80;99.90;;;;;;7394865;19;20040;-83
2022/09/09 13:32:12;;;;;;;4.35;1.02;;;23.00;99.90;;;;;;7397241;19;20105;-84
2022/09/09 13:35:01;;;;;;;5.57;1.98;;;23.00;99.90;;;;;;7397915;19;20018;-84
2022/09/09 13:37:47;;;;;;;4.32;1.13;;;23.10;99.90;;;;;;7396613;19;20015;-84
2022/09/09 13:40:32;;;;;;;8.63;3.47;;;23.30;99.90;;;;;;7394578;19;20014;-85
2022/09/09 13:43:22;;;;;;;8.00;4.05;;;23.40;99.90;;;;;;7392476;19;20468;-84
2022/09/09 13:46:42;;;;;;;5.68;1.60;;;23.30;99.90;;;;;;7392718;19;20350;-84
2022/09/09 13:49:30;;;;;;;5.60;1.35;;;22.90;99.90;;;;;;7398055;19;20011;-83
2022/09/09 13:52:18;;;;;;;4.60;1.55;;;22.50;99.90;;;;;;7394222;19;20089;-84
2022/09/09 13:55:04;;;;;;;5.22;1.08;;;22.40;99.90;;;;;;7394405;19;20018;-83
2022/09/09 13:57:55;;;;;;;4.43;1.27;;;22.20;99.90;;;;;;7394285;19;20015;-83
2022/09/09 14:00:41;;;;;;;5.00;1.70;;;22.10;99.90;;;;;;7393862;19;20689;-84
2022/09/09 14:03:27;;;;;;;6.13;1.05;;;22.00;99.90;;;;;;7392615;19;20017;-84
2022/09/09 14:06:13;;;;;;;2.88;0.80;;;21.80;99.90;;;;;;7396647;19;20010;-84
2022/09/09 14:09:00;;;;;;;1.50;0.35;;;21.80;99.90;;;;;;7393738;19;20037;-84
2022/09/09 14:11:46;;;;;;;2.30;0.20;;;21.50;99.90;;;;;;7393861;19;20035;-83
2022/09/09 14:14:32;;;;;;;2.75;0.30;;;21.00;99.90;;;;;;7393972;19;20006;-84
2022/09/09 14:17:17;;;;;;;3.67;0.60;;;20.70;99.90;;;;;;7393109;19;20053;-83
2022/09/09 14:20:07;;;;;;;2.45;0.50;;;20.30;99.90;;;;;;7393552;19;20017;-83
2022/09/09 14:22:53;;;;;;;3.47;0.70;;;20.10;99.90;;;;;;7394286;19;20517;-82
2022/09/09 14:25:43;;;;;;;2.88;0.50;;;19.90;99.90;;;;;;7393364;19;20015;-84
2022/09/09 14:28:29;;;;;;;3.80;0.80;;;19.80;99.90;;;;;;7393447;19;20081;-83
2022/09/09 14:31:17;;;;;;;3.65;0.63;;;19.60;99.90;;;;;;7393246;19;20500;-84
2022/09/09 14:34:03;;;;;;;3.80;0.73;;;19.70;99.90;;;;;;7396821;19;20011;-84
2022/09/09 14:36:49;;;;;;;4.72;0.93;;;19.80;99.90;;;;;;7392818;19;20074;-82
2022/09/09 14:39:35;;;;;;;2.67;0.80;;;19.60;99.90;;;;;;7394716;19;20010;-84
2022/09/09 14:42:21;;;;;;;4.75;0.80;;;19.60;99.90;;;;;;7391366;19;20017;-83
2022/09/09 14:45:07;;;;;;;3.72;0.57;;;19.50;99.90;;;;;;7391213;19;20086;-83
2022/09/09 14:47:53;;;;;;;3.97;1.00;;;19.50;99.90;;;;;;7394219;19;20056;-83